sensor_id;sensor_type;location;lat;lon;timestamp;P1;durP1;ratioP1;P2;durP2;ratioP2
17993;SDS011;9122;48.406;9.984;2023-02-03T00:01:48;1.77;;;1.67;;
17993;SDS011;9122;48.406;9.984;2023-02-03T00:04:33;2.10;;;1.90;;
17993;SDS011;9122;48.406;9.984;2023-02-03T00:07:17;1.70;;;1.60;;
17993;SDS011;9122;48.406;9.984;2023-02-03T00:10:02;2.30;;;2.07;;
17993;SDS011;9122;48.406;9.984;2023-02-03T00:12:47;2.43;;;2.27;;
17993;SDS011;9122;48.406;9.984;2023-02-03T00:15:34;2.10;;;1.90;;
17993;SDS011;9122;48.406;9.984;2023-02-03T00:18:18;2.50;;;2.30;;
17993;SDS011;9122;48.406;9.984;2023-02-03T00:21:03;1.97;;;1.80;;
17993;SDS011;9122;48.406;9.984;2023-02-03T00:23:51;2.23;;;2.00;;
17993;SDS011;9122;48.406;9.984;2023-02-03T00:26:41;2.43;;;2.20;;
17993;SDS011;9122;48.406;9.984;2023-02-03T00:29:29;2.90;;;2.57;;
17993;SDS011;9122;48.406;9.984;2023-02-03T00:32:13;2.90;;;2.70;;
17993;SDS011;9122;48.406;9.984;2023-02-03T00:34:58;2.50;;;2.30;;
17993;SDS011;9122;48.406;9.984;2023-02-03T00:37:42;3.03;;;2.70;;
17993;SDS011;9122;48.406;9.984;2023-02-03T00:40:27;2.80;;;2.10;;
17993;SDS011;9122;48.406;9.984;2023-02-03T00:43:12;3.70;;;2.53;;
17993;SDS011;9122;48.406;9.984;2023-02-03T00:45:57;3.23;;;2.60;;
17993;SDS011;9122;48.406;9.984;2023-02-03T00:48:41;2.00;;;1.90;;
17993;SDS011;9122;48.406;9.984;2023-02-03T00:51:26;2.63;;;1.90;;
17993;SDS011;9122;48.406;9.984;2023-02-03T00:54:11;2.53;;;1.70;;
17993;SDS011;9122;48.406;9.984;2023-02-03T00:56:56;2.77;;;1.90;;
17993;SDS011;9122;48.406;9.984;2023-02-03T00:59:40;1.90;;;1.67;;
17993;SDS011;9122;48.406;9.984;2023-02-03T01:02:25;1.97;;;1.87;;
17993;SDS011;9122;48.406;9.984;2023-02-03T01:05:10;2.80;;;2.23;;
17993;SDS011;9122;48.406;9.984;2023-02-03T01:07:54;1.97;;;1.87;;
17993;SDS011;9122;48.406;9.984;2023-02-03T01:10:39;2.83;;;2.30;;
17993;SDS011;9122;48.406;9.984;2023-02-03T01:13:24;2.23;;;2.03;;
17993;SDS011;9122;48.406;9.984;2023-02-03T01:16:08;2.20;;;2.07;;
17993;SDS011;9122;48.406;9.984;2023-02-03T01:18:54;1.93;;;1.73;;
17993;SDS011;9122;48.406;9.984;2023-02-03T01:21:38;1.67;;;1.57;;
17993;SDS011;9122;48.406;9.984;2023-02-03T01:24:23;2.50;;;2.30;;
17993;SDS011;9122;48.406;9.984;2023-02-03T01:27:08;3.67;;;2.30;;
17993;SDS011;9122;48.406;9.984;2023-02-03T01:29:52;2.73;;;2.53;;
17993;SDS011;9122;48.406;9.984;2023-02-03T01:32:37;2.50;;;2.20;;
17993;SDS011;9122;48.406;9.984;2023-02-03T01:35:21;2.53;;;1.90;;
17993;SDS011;9122;48.406;9.984;2023-02-03T01:38:06;2.20;;;2.00;;
17993;SDS011;9122;48.406;9.984;2023-02-03T01:40:50;1.90;;;1.70;;
17993;SDS011;9122;48.406;9.984;2023-02-03T01:43:36;2.00;;;1.53;;
17993;SDS011;9122;48.406;9.984;2023-02-03T01:52:05;2.10;;;1.90;;
17993;SDS011;9122;48.406;9.984;2023-02-03T01:54:56;1.77;;;1.67;;
17993;SDS011;9122;48.406;9.984;2023-02-03T01:57:45;2.77;;;2.50;;
17993;SDS011;9122;48.406;9.984;2023-02-03T02:00:38;3.03;;;1.80;;
17993;SDS011;9122;48.406;9.984;2023-02-03T02:03:24;1.60;;;1.50;;
17993;SDS011;9122;48.406;9.984;2023-02-03T02:06:12;1.60;;;1.50;;
17993;SDS011;9122;48.406;9.984;2023-02-03T02:08:57;1.50;;;1.40;;
17993;SDS011;9122;48.406;9.984;2023-02-03T02:11:43;2.83;;;1.90;;
17993;SDS011;9122;48.406;9.984;2023-02-03T02:14:28;3.30;;;1.60;;
17993;SDS011;9122;48.406;9.984;2023-02-03T02:26:41;5.53;;;1.53;;
17993;SDS011;9122;48.406;9.984;2023-02-03T02:39:02;3.73;;;1.60;;
17993;SDS011;9122;48.406;9.984;2023-02-03T02:42:10;1.93;;;1.83;;
17993;SDS011;9122;48.406;9.984;2023-02-03T02:45:14;2.07;;;1.97;;
17993;SDS011;9122;48.406;9.984;2023-02-03T02:48:06;1.77;;;1.67;;
17993;SDS011;9122;48.406;9.984;2023-02-03T02:50:56;2.10;;;1.67;;
17993;SDS011;9122;48.406;9.984;2023-02-03T02:53:48;1.90;;;1.80;;
17993;SDS011;9122;48.406;9.984;2023-02-03T02:56:37;2.10;;;1.83;;
17993;SDS011;9122;48.406;9.984;2023-02-03T02:59:23;1.53;;;1.43;;
17993;SDS011;9122;48.406;9.984;2023-02-03T03:02:09;3.53;;;1.70;;
17993;SDS011;9122;48.406;9.984;2023-02-03T03:04:54;1.70;;;1.60;;
17993;SDS011;9122;48.406;9.984;2023-02-03T03:07:40;1.30;;;1.30;;
17993;SDS011;9122;48.406;9.984;2023-02-03T03:10:38;1.93;;;1.40;;
17993;SDS011;9122;48.406;9.984;2023-02-03T03:13:26;2.00;;;1.63;;
17993;SDS011;9122;48.406;9.984;2023-02-03T03:16:14;1.03;;;1.03;;
17993;SDS011;9122;48.406;9.984;2023-02-03T03:19:05;1.93;;;1.57;;
17993;SDS011;9122;48.406;9.984;2023-02-03T03:21:54;2.40;;;1.57;;
17993;SDS011;9122;48.406;9.984;2023-02-03T03:24:46;2.70;;;1.90;;
17993;SDS011;9122;48.406;9.984;2023-02-03T03:27:35;2.47;;;2.00;;
17993;SDS011;9122;48.406;9.984;2023-02-03T03:30:24;1.37;;;1.27;;
17993;SDS011;9122;48.406;9.984;2023-02-03T03:33:12;1.77;;;1.40;;
17993;SDS011;9122;48.406;9.984;2023-02-03T03:36:01;1.20;;;1.20;;
17993;SDS011;9122;48.406;9.984;2023-02-03T03:42:12;1.23;;;1.13;;
17993;SDS011;9122;48.406;9.984;2023-02-03T03:48:30;1.30;;;1.20;;
17993;SDS011;9122;48.406;9.984;2023-02-03T03:51:30;1.47;;;1.10;;
17993;SDS011;9122;48.406;9.984;2023-02-03T03:54:23;2.43;;;1.93;;
17993;SDS011;9122;48.406;9.984;2023-02-03T03:57:13;1.73;;;1.57;;
17993;SDS011;9122;48.406;9.984;2023-02-03T04:00:09;3.03;;;1.97;;
17993;SDS011;9122;48.406;9.984;2023-02-03T04:02:58;1.87;;;1.40;;
17993;SDS011;9122;48.406;9.984;2023-02-03T04:05:49;3.40;;;1.70;;
17993;SDS011;9122;48.406;9.984;2023-02-03T04:08:34;2.43;;;1.37;;
17993;SDS011;9122;48.406;9.984;2023-02-03T04:11:19;2.53;;;1.90;;
17993;SDS011;9122;48.406;9.984;2023-02-03T04:14:22;3.10;;;2.17;;
17993;SDS011;9122;48.406;9.984;2023-02-03T04:17:07;3.10;;;1.63;;
17993;SDS011;9122;48.406;9.984;2023-02-03T04:19:52;5.27;;;2.67;;
17993;SDS011;9122;48.406;9.984;2023-02-03T04:22:37;2.23;;;2.03;;
17993;SDS011;9122;48.406;9.984;2023-02-03T04:25:21;2.57;;;2.00;;
17993;SDS011;9122;48.406;9.984;2023-02-03T04:28:06;1.97;;;1.77;;
17993;SDS011;9122;48.406;9.984;2023-02-03T04:30:50;1.70;;;1.60;;
17993;SDS011;9122;48.406;9.984;2023-02-03T04:33:35;2.77;;;2.07;;
17993;SDS011;9122;48.406;9.984;2023-02-03T04:36:19;1.87;;;1.70;;
17993;SDS011;9122;48.406;9.984;2023-02-03T04:39:03;2.30;;;1.63;;
17993;SDS011;9122;48.406;9.984;2023-02-03T04:41:48;2.90;;;2.23;;
17993;SDS011;9122;48.406;9.984;2023-02-03T04:44:33;3.50;;;2.00;;
17993;SDS011;9122;48.406;9.984;2023-02-03T04:47:17;3.40;;;2.13;;
17993;SDS011;9122;48.406;9.984;2023-02-03T04:50:03;2.70;;;2.30;;
17993;SDS011;9122;48.406;9.984;2023-02-03T04:52:47;3.97;;;2.30;;
17993;SDS011;9122;48.406;9.984;2023-02-03T04:55:32;2.90;;;1.77;;
17993;SDS011;9122;48.406;9.984;2023-02-03T04:58:17;2.00;;;1.80;;
17993;SDS011;9122;48.406;9.984;2023-02-03T05:01:04;2.10;;;1.50;;
17993;SDS011;9122;48.406;9.984;2023-02-03T05:03:51;2.90;;;2.07;;
17993;SDS011;9122;48.406;9.984;2023-02-03T05:06:35;2.07;;;1.10;;
17993;SDS011;9122;48.406;9.984;2023-02-03T05:09:20;3.03;;;2.00;;
17993;SDS011;9122;48.406;9.984;2023-02-03T05:12:05;2.37;;;1.77;;
17993;SDS011;9122;48.406;9.984;2023-02-03T05:14:49;2.40;;;1.87;;
17993;SDS011;9122;48.406;9.984;2023-02-03T05:17:34;3.53;;;2.77;;
17993;SDS011;9122;48.406;9.984;2023-02-03T05:20:21;3.17;;;2.50;;
17993;SDS011;9122;48.406;9.984;2023-02-03T05:23:06;1.93;;;1.80;;
17993;SDS011;9122;48.406;9.984;2023-02-03T05:25:50;2.07;;;1.87;;
17993;SDS011;9122;48.406;9.984;2023-02-03T05:28:35;2.97;;;1.73;;
17993;SDS011;9122;48.406;9.984;2023-02-03T05:31:19;1.70;;;1.50;;
17993;SDS011;9122;48.406;9.984;2023-02-03T05:34:04;4.70;;;1.97;;
17993;SDS011;9122;48.406;9.984;2023-02-03T05:36:48;2.10;;;1.87;;
17993;SDS011;9122;48.406;9.984;2023-02-03T05:39:33;2.90;;;2.23;;
17993;SDS011;9122;48.406;9.984;2023-02-03T05:42:17;4.73;;;1.97;;
17993;SDS011;9122;48.406;9.984;2023-02-03T05:45:02;2.13;;;1.83;;
17993;SDS011;9122;48.406;9.984;2023-02-03T05:47:47;2.50;;;2.07;;
17993;SDS011;9122;48.406;9.984;2023-02-03T05:50:31;2.73;;;2.03;;
17993;SDS011;9122;48.406;9.984;2023-02-03T05:53:16;2.33;;;1.73;;
17993;SDS011;9122;48.406;9.984;2023-02-03T05:56:00;3.63;;;2.80;;
17993;SDS011;9122;48.406;9.984;2023-02-03T05:58:45;2.93;;;2.30;;
17993;SDS011;9122;48.406;9.984;2023-02-03T06:01:30;2.67;;;2.47;;
17993;SDS011;9122;48.406;9.984;2023-02-03T06:04:15;4.53;;;3.53;;
17993;SDS011;9122;48.406;9.984;2023-02-03T06:07:00;4.73;;;3.23;;
17993;SDS011;9122;48.406;9.984;2023-02-03T06:09:45;3.73;;;3.43;;
17993;SDS011;9122;48.406;9.984;2023-02-03T06:12:29;4.03;;;2.70;;
17993;SDS011;9122;48.406;9.984;2023-02-03T06:15:14;3.00;;;2.70;;
17993;SDS011;9122;48.406;9.984;2023-02-03T06:17:59;2.30;;;2.10;;
17993;SDS011;9122;48.406;9.984;2023-02-03T06:20:43;2.87;;;2.60;;
17993;SDS011;9122;48.406;9.984;2023-02-03T06:23:28;3.50;;;2.63;;
17993;SDS011;9122;48.406;9.984;2023-02-03T06:26:14;4.20;;;2.63;;
17993;SDS011;9122;48.406;9.984;2023-02-03T06:28:58;3.67;;;2.97;;
17993;SDS011;9122;48.406;9.984;2023-02-03T06:31:42;2.73;;;2.27;;
17993;SDS011;9122;48.406;9.984;2023-02-03T06:34:27;5.03;;;3.70;;
17993;SDS011;9122;48.406;9.984;2023-02-03T06:37:11;4.40;;;3.30;;
17993;SDS011;9122;48.406;9.984;2023-02-03T06:39:56;3.30;;;3.00;;
17993;SDS011;9122;48.406;9.984;2023-02-03T06:42:44;3.03;;;2.80;;
17993;SDS011;9122;48.406;9.984;2023-02-03T06:45:31;3.23;;;2.93;;
17993;SDS011;9122;48.406;9.984;2023-02-03T06:48:17;4.77;;;3.13;;
17993;SDS011;9122;48.406;9.984;2023-02-03T06:51:01;3.20;;;2.90;;
17993;SDS011;9122;48.406;9.984;2023-02-03T06:53:47;4.57;;;2.60;;
17993;SDS011;9122;48.406;9.984;2023-02-03T06:56:31;4.47;;;2.60;;
17993;SDS011;9122;48.406;9.984;2023-02-03T06:59:15;2.70;;;2.50;;
17993;SDS011;9122;48.406;9.984;2023-02-03T07:02:00;3.33;;;2.50;;
17993;SDS011;9122;48.406;9.984;2023-02-03T07:04:45;2.90;;;2.70;;
17993;SDS011;9122;48.406;9.984;2023-02-03T07:07:30;3.27;;;2.90;;
17993;SDS011;9122;48.406;9.984;2023-02-03T07:10:15;2.93;;;2.63;;
17993;SDS011;9122;48.406;9.984;2023-02-03T07:13:01;4.00;;;2.60;;
17993;SDS011;9122;48.406;9.984;2023-02-03T07:15:49;8.20;;;3.30;;
17993;SDS011;9122;48.406;9.984;2023-02-03T07:18:34;2.70;;;2.50;;
17993;SDS011;9122;48.406;9.984;2023-02-03T07:21:19;4.23;;;2.67;;
17993;SDS011;9122;48.406;9.984;2023-02-03T07:24:05;5.53;;;3.03;;
17993;SDS011;9122;48.406;9.984;2023-02-03T07:26:50;3.23;;;2.60;;
17993;SDS011;9122;48.406;9.984;2023-02-03T07:29:35;5.57;;;3.20;;
17993;SDS011;9122;48.406;9.984;2023-02-03T07:32:20;4.87;;;3.30;;
17993;SDS011;9122;48.406;9.984;2023-02-03T07:35:05;4.47;;;3.17;;
17993;SDS011;9122;48.406;9.984;2023-02-03T07:37:51;4.57;;;2.40;;
17993;SDS011;9122;48.406;9.984;2023-02-03T07:40:36;4.67;;;3.67;;
17993;SDS011;9122;48.406;9.984;2023-02-03T07:43:21;4.53;;;2.87;;
17993;SDS011;9122;48.406;9.984;2023-02-03T07:46:06;7.80;;;3.50;;
17993;SDS011;9122;48.406;9.984;2023-02-03T07:48:50;7.13;;;4.30;;
17993;SDS011;9122;48.406;9.984;2023-02-03T07:51:35;5.13;;;3.10;;
17993;SDS011;9122;48.406;9.984;2023-02-03T07:54:20;7.07;;;3.30;;
17993;SDS011;9122;48.406;9.984;2023-02-03T07:57:04;3.60;;;3.30;;
17993;SDS011;9122;48.406;9.984;2023-02-03T07:59:49;3.63;;;3.07;;
17993;SDS011;9122;48.406;9.984;2023-02-03T08:02:34;4.33;;;3.60;;
17993;SDS011;9122;48.406;9.984;2023-02-03T08:05:19;4.87;;;3.70;;
17993;SDS011;9122;48.406;9.984;2023-02-03T08:08:04;5.60;;;3.97;;
17993;SDS011;9122;48.406;9.984;2023-02-03T08:10:49;7.07;;;4.30;;
17993;SDS011;9122;48.406;9.984;2023-02-03T08:16:46;3.17;;;2.87;;
17993;SDS011;9122;48.406;9.984;2023-02-03T08:19:30;5.27;;;3.13;;
17993;SDS011;9122;48.406;9.984;2023-02-03T08:22:15;4.03;;;3.40;;
17993;SDS011;9122;48.406;9.984;2023-02-03T08:24:59;3.90;;;2.80;;
17993;SDS011;9122;48.406;9.984;2023-02-03T08:27:44;5.57;;;2.87;;
17993;SDS011;9122;48.406;9.984;2023-02-03T08:30:29;3.33;;;2.47;;
17993;SDS011;9122;48.406;9.984;2023-02-03T08:33:13;2.80;;;2.40;;
17993;SDS011;9122;48.406;9.984;2023-02-03T08:35:58;3.20;;;2.50;;
17993;SDS011;9122;48.406;9.984;2023-02-03T08:38:43;3.67;;;2.37;;
17993;SDS011;9122;48.406;9.984;2023-02-03T08:41:28;3.47;;;2.50;;
17993;SDS011;9122;48.406;9.984;2023-02-03T08:44:13;4.07;;;2.97;;
17993;SDS011;9122;48.406;9.984;2023-02-03T08:46:57;2.83;;;2.53;;
17993;SDS011;9122;48.406;9.984;2023-02-03T08:49:42;3.33;;;2.27;;
17993;SDS011;9122;48.406;9.984;2023-02-03T08:52:26;3.77;;;2.90;;
17993;SDS011;9122;48.406;9.984;2023-02-03T08:55:11;2.97;;;2.27;;
17993;SDS011;9122;48.406;9.984;2023-02-03T08:57:56;2.67;;;2.37;;
17993;SDS011;9122;48.406;9.984;2023-02-03T09:00:41;5.30;;;3.03;;
17993;SDS011;9122;48.406;9.984;2023-02-03T09:03:26;2.70;;;2.50;;
17993;SDS011;9122;48.406;9.984;2023-02-03T09:06:10;2.60;;;2.27;;
17993;SDS011;9122;48.406;9.984;2023-02-03T09:08:59;3.23;;;2.30;;
17993;SDS011;9122;48.406;9.984;2023-02-03T09:11:43;5.30;;;2.87;;
17993;SDS011;9122;48.406;9.984;2023-02-03T09:14:28;2.33;;;2.13;;
17993;SDS011;9122;48.406;9.984;2023-02-03T09:17:14;4.20;;;2.60;;
17993;SDS011;9122;48.406;9.984;2023-02-03T09:19:58;3.57;;;2.40;;
17993;SDS011;9122;48.406;9.984;2023-02-03T09:22:42;3.57;;;3.10;;
17993;SDS011;9122;48.406;9.984;2023-02-03T09:25:26;3.43;;;2.90;;
17993;SDS011;9122;48.406;9.984;2023-02-03T09:28:10;4.27;;;3.50;;
17993;SDS011;9122;48.406;9.984;2023-02-03T09:30:59;4.60;;;2.90;;
17993;SDS011;9122;48.406;9.984;2023-02-03T09:33:44;8.67;;;3.87;;
17993;SDS011;9122;48.406;9.984;2023-02-03T09:36:29;4.40;;;3.10;;
17993;SDS011;9122;48.406;9.984;2023-02-03T09:39:14;5.73;;;3.00;;
17993;SDS011;9122;48.406;9.984;2023-02-03T09:42:05;5.87;;;2.93;;
17993;SDS011;9122;48.406;9.984;2023-02-03T09:45:11;3.97;;;3.53;;
17993;SDS011;9122;48.406;9.984;2023-02-03T09:48:09;5.27;;;2.80;;
17993;SDS011;9122;48.406;9.984;2023-02-03T09:51:08;4.47;;;3.53;;
17993;SDS011;9122;48.406;9.984;2023-02-03T09:54:09;4.40;;;3.97;;
17993;SDS011;9122;48.406;9.984;2023-02-03T09:57:02;4.60;;;3.07;;
17993;SDS011;9122;48.406;9.984;2023-02-03T09:59:49;2.60;;;2.40;;
17993;SDS011;9122;48.406;9.984;2023-02-03T10:02:41;3.40;;;2.70;;
17993;SDS011;9122;48.406;9.984;2023-02-03T10:14:35;2.93;;;2.50;;
17993;SDS011;9122;48.406;9.984;2023-02-03T10:20:46;3.37;;;2.43;;
17993;SDS011;9122;48.406;9.984;2023-02-03T10:23:37;3.53;;;2.50;;
17993;SDS011;9122;48.406;9.984;2023-02-03T10:26:25;5.73;;;3.40;;
17993;SDS011;9122;48.406;9.984;2023-02-03T10:29:16;2.80;;;2.60;;
17993;SDS011;9122;48.406;9.984;2023-02-03T10:32:17;2.97;;;2.40;;
17993;SDS011;9122;48.406;9.984;2023-02-03T10:35:02;5.03;;;2.53;;
17993;SDS011;9122;48.406;9.984;2023-02-03T10:37:49;2.50;;;2.30;;
17993;SDS011;9122;48.406;9.984;2023-02-03T10:40:38;4.50;;;3.17;;
17993;SDS011;9122;48.406;9.984;2023-02-03T10:43:23;7.23;;;2.30;;
17993;SDS011;9122;48.406;9.984;2023-02-03T10:46:27;4.10;;;2.00;;
17993;SDS011;9122;48.406;9.984;2023-02-03T10:49:12;3.97;;;3.53;;
17993;SDS011;9122;48.406;9.984;2023-02-03T10:52:00;3.63;;;2.80;;
17993;SDS011;9122;48.406;9.984;2023-02-03T10:54:47;3.10;;;2.80;;
17993;SDS011;9122;48.406;9.984;2023-02-03T10:57:34;3.13;;;2.20;;
17993;SDS011;9122;48.406;9.984;2023-02-03T11:00:22;3.67;;;2.63;;
17993;SDS011;9122;48.406;9.984;2023-02-03T11:06:04;3.83;;;3.43;;
17993;SDS011;9122;48.406;9.984;2023-02-03T11:08:49;3.57;;;2.73;;
17993;SDS011;9122;48.406;9.984;2023-02-03T11:11:34;5.50;;;3.60;;
17993;SDS011;9122;48.406;9.984;2023-02-03T11:14:24;4.23;;;3.33;;
17993;SDS011;9122;48.406;9.984;2023-02-03T11:17:11;4.07;;;3.40;;
17993;SDS011;9122;48.406;9.984;2023-02-03T11:20:12;4.93;;;3.73;;
17993;SDS011;9122;48.406;9.984;2023-02-03T11:22:59;5.37;;;3.53;;
17993;SDS011;9122;48.406;9.984;2023-02-03T11:25:45;8.27;;;4.23;;
17993;SDS011;9122;48.406;9.984;2023-02-03T11:28:30;4.67;;;3.23;;
17993;SDS011;9122;48.406;9.984;2023-02-03T11:31:22;2.77;;;2.57;;
17993;SDS011;9122;48.406;9.984;2023-02-03T11:34:16;6.13;;;3.93;;
17993;SDS011;9122;48.406;9.984;2023-02-03T11:37:30;2.30;;;2.10;;
17993;SDS011;9122;48.406;9.984;2023-02-03T11:43:00;3.77;;;2.90;;
17993;SDS011;9122;48.406;9.984;2023-02-03T11:45:47;3.63;;;2.60;;
17993;SDS011;9122;48.406;9.984;2023-02-03T11:48:36;2.63;;;2.37;;
17993;SDS011;9122;48.406;9.984;2023-02-03T11:54:54;4.20;;;2.50;;
17993;SDS011;9122;48.406;9.984;2023-02-03T11:57:40;2.97;;;2.60;;
17993;SDS011;9122;48.406;9.984;2023-02-03T12:00:35;3.50;;;2.67;;
17993;SDS011;9122;48.406;9.984;2023-02-03T12:19:06;2.30;;;2.10;;
17993;SDS011;9122;48.406;9.984;2023-02-03T12:21:55;4.23;;;3.10;;
17993;SDS011;9122;48.406;9.984;2023-02-03T12:30:41;4.57;;;2.83;;
17993;SDS011;9122;48.406;9.984;2023-02-03T12:33:34;2.60;;;2.40;;
17993;SDS011;9122;48.406;9.984;2023-02-03T12:36:27;3.67;;;2.80;;
17993;SDS011;9122;48.406;9.984;2023-02-03T12:39:29;2.10;;;2.00;;
17993;SDS011;9122;48.406;9.984;2023-02-03T12:45:11;1.80;;;1.70;;
17993;SDS011;9122;48.406;9.984;2023-02-03T12:50:59;1.23;;;1.13;;
17993;SDS011;9122;48.406;9.984;2023-02-03T12:53:49;1.40;;;1.30;;
17993;SDS011;9122;48.406;9.984;2023-02-03T12:56:41;1.27;;;0.90;;
17993;SDS011;9122;48.406;9.984;2023-02-03T12:59:27;0.50;;;0.40;;
17993;SDS011;9122;48.406;9.984;2023-02-03T13:02:20;0.30;;;0.30;;
17993;SDS011;9122;48.406;9.984;2023-02-03T13:05:18;0.80;;;0.70;;
17993;SDS011;9122;48.406;9.984;2023-02-03T13:08:15;0.50;;;0.50;;
17993;SDS011;9122;48.406;9.984;2023-02-03T13:11:41;0.60;;;0.60;;
17993;SDS011;9122;48.406;9.984;2023-02-03T13:14:36;0.40;;;0.40;;
17993;SDS011;9122;48.406;9.984;2023-02-03T13:17:32;0.40;;;0.40;;
17993;SDS011;9122;48.406;9.984;2023-02-03T13:20:25;0.40;;;0.40;;
17993;SDS011;9122;48.406;9.984;2023-02-03T13:23:13;0.23;;;0.20;;
17993;SDS011;9122;48.406;9.984;2023-02-03T13:26:17;0.53;;;0.30;;
17993;SDS011;9122;48.406;9.984;2023-02-03T13:35:20;0.50;;;0.50;;
17993;SDS011;9122;48.406;9.984;2023-02-03T13:41:42;0.47;;;0.47;;
17993;SDS011;9122;48.406;9.984;2023-02-03T13:44:32;0.53;;;0.53;;
17993;SDS011;9122;48.406;9.984;2023-02-03T13:47:20;0.60;;;0.60;;
17993;SDS011;9122;48.406;9.984;2023-02-03T13:50:15;0.50;;;0.50;;
17993;SDS011;9122;48.406;9.984;2023-02-03T13:56:04;0.50;;;0.40;;
17993;SDS011;9122;48.406;9.984;2023-02-03T13:59:05;0.50;;;0.50;;
17993;SDS011;9122;48.406;9.984;2023-02-03T14:02:39;0.50;;;0.50;;
17993;SDS011;9122;48.406;9.984;2023-02-03T14:05:08;1.57;;;0.63;;
17993;SDS011;9122;48.406;9.984;2023-02-03T14:17:00;0.50;;;0.50;;
17993;SDS011;9122;48.406;9.984;2023-02-03T14:22:35;0.67;;;0.60;;
17993;SDS011;9122;48.406;9.984;2023-02-03T14:25:23;0.97;;;0.70;;
17993;SDS011;9122;48.406;9.984;2023-02-03T14:28:10;0.93;;;0.50;;
17993;SDS011;9122;48.406;9.984;2023-02-03T14:34:12;2.03;;;1.93;;
17993;SDS011;9122;48.406;9.984;2023-02-03T14:36:57;1.07;;;1.07;;
17993;SDS011;9122;48.406;9.984;2023-02-03T14:57:51;0.40;;;0.40;;
17993;SDS011;9122;48.406;9.984;2023-02-03T15:00:37;1.00;;;0.70;;
17993;SDS011;9122;48.406;9.984;2023-02-03T15:03:23;0.73;;;0.73;;
17993;SDS011;9122;48.406;9.984;2023-02-03T15:06:25;2.00;;;0.77;;
17993;SDS011;9122;48.406;9.984;2023-02-03T15:09:29;0.70;;;0.70;;
17993;SDS011;9122;48.406;9.984;2023-02-03T15:12:18;0.67;;;0.67;;
17993;SDS011;9122;48.406;9.984;2023-02-03T15:15:20;0.90;;;0.83;;
17993;SDS011;9122;48.406;9.984;2023-02-03T15:18:41;0.50;;;0.50;;
17993;SDS011;9122;48.406;9.984;2023-02-03T15:21:19;1.60;;;1.00;;
17993;SDS011;9122;48.406;9.984;2023-02-03T15:24:09;0.70;;;0.70;;
17993;SDS011;9122;48.406;9.984;2023-02-03T15:27:02;0.63;;;0.63;;
17993;SDS011;9122;48.406;9.984;2023-02-03T15:29:47;0.53;;;0.53;;
17993;SDS011;9122;48.406;9.984;2023-02-03T15:32:32;0.50;;;0.50;;
17993;SDS011;9122;48.406;9.984;2023-02-03T15:35:21;0.77;;;0.70;;
17993;SDS011;9122;48.406;9.984;2023-02-03T15:38:12;0.70;;;0.70;;
17993;SDS011;9122;48.406;9.984;2023-02-03T15:41:00;0.70;;;0.70;;
17993;SDS011;9122;48.406;9.984;2023-02-03T15:43:50;0.53;;;0.53;;
17993;SDS011;9122;48.406;9.984;2023-02-03T15:46:42;0.50;;;0.50;;
17993;SDS011;9122;48.406;9.984;2023-02-03T15:49:33;0.80;;;0.80;;
17993;SDS011;9122;48.406;9.984;2023-02-03T15:52:25;0.63;;;0.60;;
17993;SDS011;9122;48.406;9.984;2023-02-03T15:55:45;0.73;;;0.57;;
17993;SDS011;9122;48.406;9.984;2023-02-03T16:01:10;0.97;;;0.93;;
17993;SDS011;9122;48.406;9.984;2023-02-03T16:03:58;0.50;;;0.50;;
17993;SDS011;9122;48.406;9.984;2023-02-03T16:06:53;0.53;;;0.53;;
17993;SDS011;9122;48.406;9.984;2023-02-03T16:09:39;0.70;;;0.70;;
17993;SDS011;9122;48.406;9.984;2023-02-03T16:12:28;0.90;;;0.67;;
17993;SDS011;9122;48.406;9.984;2023-02-03T16:15:22;0.70;;;0.70;;
17993;SDS011;9122;48.406;9.984;2023-02-03T16:18:15;0.80;;;0.77;;
17993;SDS011;9122;48.406;9.984;2023-02-03T16:21:04;0.80;;;0.47;;
17993;SDS011;9122;48.406;9.984;2023-02-03T16:23:48;1.60;;;1.20;;
17993;SDS011;9122;48.406;9.984;2023-02-03T16:26:33;0.80;;;0.80;;
17993;SDS011;9122;48.406;9.984;2023-02-03T16:29:27;0.77;;;0.77;;
17993;SDS011;9122;48.406;9.984;2023-02-03T16:32:31;0.60;;;0.60;;
17993;SDS011;9122;48.406;9.984;2023-02-03T16:35:34;1.13;;;0.70;;
17993;SDS011;9122;48.406;9.984;2023-02-03T16:38:37;0.90;;;0.90;;
17993;SDS011;9122;48.406;9.984;2023-02-03T16:41:49;1.00;;;1.00;;
17993;SDS011;9122;48.406;9.984;2023-02-03T16:44:53;0.90;;;0.90;;
17993;SDS011;9122;48.406;9.984;2023-02-03T16:47:56;1.23;;;1.13;;
17993;SDS011;9122;48.406;9.984;2023-02-03T16:51:01;1.17;;;1.07;;
17993;SDS011;9122;48.406;9.984;2023-02-03T16:53:48;1.70;;;1.60;;
17993;SDS011;9122;48.406;9.984;2023-02-03T16:56:32;1.33;;;1.27;;
17993;SDS011;9122;48.406;9.984;2023-02-03T16:59:17;1.30;;;1.20;;
17993;SDS011;9122;48.406;9.984;2023-02-03T17:02:02;1.77;;;0.77;;
17993;SDS011;9122;48.406;9.984;2023-02-03T17:04:46;1.47;;;1.37;;
17993;SDS011;9122;48.406;9.984;2023-02-03T17:07:32;1.10;;;1.00;;
17993;SDS011;9122;48.406;9.984;2023-02-03T17:10:17;2.20;;;1.03;;
17993;SDS011;9122;48.406;9.984;2023-02-03T17:13:01;1.40;;;1.30;;
17993;SDS011;9122;48.406;9.984;2023-02-03T17:15:47;1.10;;;1.00;;
17993;SDS011;9122;48.406;9.984;2023-02-03T17:18:34;1.00;;;0.90;;
17993;SDS011;9122;48.406;9.984;2023-02-03T17:21:21;0.80;;;0.80;;
17993;SDS011;9122;48.406;9.984;2023-02-03T17:24:07;0.90;;;0.80;;
17993;SDS011;9122;48.406;9.984;2023-02-03T17:26:52;1.30;;;1.20;;
17993;SDS011;9122;48.406;9.984;2023-02-03T17:29:37;1.07;;;0.70;;
17993;SDS011;9122;48.406;9.984;2023-02-03T17:32:21;1.07;;;0.77;;
17993;SDS011;9122;48.406;9.984;2023-02-03T17:35:06;1.03;;;0.90;;
17993;SDS011;9122;48.406;9.984;2023-02-03T17:37:51;1.37;;;1.27;;
17993;SDS011;9122;48.406;9.984;2023-02-03T17:40:39;0.80;;;0.80;;
17993;SDS011;9122;48.406;9.984;2023-02-03T17:43:23;2.70;;;2.50;;
17993;SDS011;9122;48.406;9.984;2023-02-03T17:46:09;3.60;;;3.30;;
17993;SDS011;9122;48.406;9.984;2023-02-03T17:48:55;2.33;;;1.60;;
17993;SDS011;9122;48.406;9.984;2023-02-03T17:51:41;0.87;;;0.87;;
17993;SDS011;9122;48.406;9.984;2023-02-03T17:54:26;0.80;;;0.80;;
17993;SDS011;9122;48.406;9.984;2023-02-03T17:57:10;0.80;;;0.80;;
17993;SDS011;9122;48.406;9.984;2023-02-03T17:59:55;1.13;;;0.60;;
17993;SDS011;9122;48.406;9.984;2023-02-03T18:02:42;0.80;;;0.80;;
17993;SDS011;9122;48.406;9.984;2023-02-03T18:05:26;0.80;;;0.80;;
17993;SDS011;9122;48.406;9.984;2023-02-03T18:08:12;0.77;;;0.77;;
17993;SDS011;9122;48.406;9.984;2023-02-03T18:10:56;1.07;;;0.97;;
17993;SDS011;9122;48.406;9.984;2023-02-03T18:13:43;2.93;;;1.60;;
17993;SDS011;9122;48.406;9.984;2023-02-03T18:16:31;1.50;;;1.40;;
17993;SDS011;9122;48.406;9.984;2023-02-03T18:19:18;0.80;;;0.80;;
17993;SDS011;9122;48.406;9.984;2023-02-03T18:22:03;1.10;;;1.00;;
17993;SDS011;9122;48.406;9.984;2023-02-03T18:24:47;1.40;;;1.30;;
17993;SDS011;9122;48.406;9.984;2023-02-03T18:27:35;1.10;;;1.00;;
17993;SDS011;9122;48.406;9.984;2023-02-03T18:30:20;1.27;;;1.17;;
17993;SDS011;9122;48.406;9.984;2023-02-03T18:33:04;1.90;;;1.80;;
17993;SDS011;9122;48.406;9.984;2023-02-03T18:35:48;1.10;;;1.10;;
17993;SDS011;9122;48.406;9.984;2023-02-03T18:38:33;1.80;;;1.70;;
17993;SDS011;9122;48.406;9.984;2023-02-03T18:41:20;0.87;;;0.83;;
17993;SDS011;9122;48.406;9.984;2023-02-03T18:44:06;1.17;;;1.10;;
17993;SDS011;9122;48.406;9.984;2023-02-03T18:46:54;1.17;;;1.03;;
17993;SDS011;9122;48.406;9.984;2023-02-03T18:49:39;1.53;;;1.30;;
17993;SDS011;9122;48.406;9.984;2023-02-03T18:52:24;2.10;;;1.80;;
17993;SDS011;9122;48.406;9.984;2023-02-03T18:55:09;1.90;;;1.30;;
17993;SDS011;9122;48.406;9.984;2023-02-03T18:57:54;1.20;;;1.03;;
17993;SDS011;9122;48.406;9.984;2023-02-03T19:00:38;1.53;;;1.30;;
17993;SDS011;9122;48.406;9.984;2023-02-03T19:03:23;1.30;;;1.30;;
17993;SDS011;9122;48.406;9.984;2023-02-03T19:06:09;1.50;;;1.40;;
17993;SDS011;9122;48.406;9.984;2023-02-03T19:08:54;1.63;;;1.53;;
17993;SDS011;9122;48.406;9.984;2023-02-03T19:11:39;1.20;;;1.20;;
17993;SDS011;9122;48.406;9.984;2023-02-03T19:14:24;2.47;;;1.70;;
17993;SDS011;9122;48.406;9.984;2023-02-03T19:17:08;1.43;;;1.30;;
17993;SDS011;9122;48.406;9.984;2023-02-03T19:19:53;2.20;;;2.00;;